Time;durP1;ratioP1;P1;durP2;ratioP2;P2;SDS_P1;SDS_P2;PMS_P1;PMS_P2;Temp;Humidity;BMP_temperature;BMP_pressure;BME280_temperature;BME280_humidity;BME280_pressure;Samples;Min_cycle;Max_cycle;Signal;HPM_P1;HPM_P2
2021/09/13 00:01:42;;;;;;;3.80;2.22;;;;;;;;;;5054239;28;20469;-52
2021/09/13 00:04:08;;;;;;;4.03;2.10;;;;;;;;;;5053057;28;20025;-52
2021/09/13 00:06:34;;;;;;;5.10;2.20;;;;;;;;;;5054300;28;20186;-52
2021/09/13 00:09:00;;;;;;;2.25;1.85;;;;;;;;;;5053973;28;20021;-52
2021/09/13 00:11:26;;;;;;;5.40;2.53;;;;;;;;;;5054963;28;20032;-52
2021/09/13 00:13:52;;;;;;;5.68;2.60;;;;;;;;;;5053304;28;20017;-52
2021/09/13 00:16:19;;;;;;;3.65;2.42;;;;;;;;;;5043309;28;20056;-52
2021/09/13 00:18:45;;;;;;;8.55;2.45;;;;;;;;;;5041202;28;20048;-52
2021/09/13 00:21:11;;;;;;;5.13;2.45;;;;;;;;;;5051749;28;20116;-52
2021/09/13 00:23:37;;;;;;;4.95;2.63;;;;;;;;;;5052994;28;20052;-52
2021/09/13 00:26:03;;;;;;;6.28;2.13;;;;;;;;;;5037151;28;20072;-52
2021/09/13 00:28:29;;;;;;;3.67;1.85;;;;;;;;;;5031999;28;20033;-52
2021/09/13 00:30:55;;;;;;;7.05;2.53;;;;;;;;;;5034027;28;20030;-52
2021/09/13 00:33:21;;;;;;;3.92;2.00;;;;;;;;;;5043932;28;20032;-52
2021/09/13 00:35:47;;;;;;;4.35;2.42;;;;;;;;;;5051937;28;20071;-52
2021/09/13 00:38:13;;;;;;;5.88;2.30;;;;;;;;;;5054381;28;20033;-52
2021/09/13 00:40:39;;;;;;;2.60;2.40;;;;;;;;;;5052530;28;20095;-52
2021/09/13 00:43:05;;;;;;;4.90;2.45;;;;;;;;;;5054126;28;20021;-52
2021/09/13 00:45:31;;;;;;;3.35;2.25;;;;;;;;;;5053048;28;20433;-52
2021/09/13 00:47:57;;;;;;;5.65;2.13;;;;;;;;;;5053537;28;20086;-52
2021/09/13 00:50:23;;;;;;;3.10;2.05;;;;;;;;;;5052430;28;20033;-53
2021/09/13 00:52:53;;;;;;;4.18;2.15;;;;;;;;;;5054194;28;20029;-52
2021/09/13 00:55:19;;;;;;;13.15;2.35;;;;;;;;;;5053075;28;20025;-52
2021/09/13 00:57:45;;;;;;;5.03;2.47;;;;;;;;;;5053756;28;20025;-52
2021/09/13 01:00:12;;;;;;;2.88;2.33;;;;;;;;;;5053757;28;20029;-52
2021/09/13 01:02:38;;;;;;;2.78;2.28;;;;;;;;;;5052272;28;20047;-52
2021/09/13 01:05:05;;;;;;;5.30;2.50;;;;;;;;;;5051796;28;20021;-52
2021/09/13 01:07:31;;;;;;;2.83;2.10;;;;;;;;;;5053585;28;20025;-52
2021/09/13 01:09:58;;;;;;;2.80;2.15;;;;;;;;;;5053408;28;20550;-52
2021/09/13 01:12:24;;;;;;;7.07;3.03;;;;;;;;;;5053546;28;20120;-52
2021/09/13 01:14:50;;;;;;;2.58;2.03;;;;;;;;;;5052741;28;20017;-52
2021/09/13 01:17:16;;;;;;;4.93;2.30;;;;;;;;;;5052331;28;20029;-52
2021/09/13 01:19:42;;;;;;;3.17;1.98;;;;;;;;;;5047163;28;20462;-52
2021/09/13 01:22:10;;;;;;;3.92;2.40;;;;;;;;;;5033442;28;20017;-52
2021/09/13 01:24:36;;;;;;;5.63;3.15;;;;;;;;;;5032702;28;20351;-52
2021/09/13 01:27:03;;;;;;;2.92;2.25;;;;;;;;;;5032869;28;20470;-52
2021/09/13 01:29:29;;;;;;;3.28;2.42;;;;;;;;;;5033172;28;20087;-52
2021/09/13 01:31:55;;;;;;;2.58;2.00;;;;;;;;;;5032882;28;20037;-52
2021/09/13 01:34:21;;;;;;;2.75;2.30;;;;;;;;;;5049022;28;20462;-52
2021/09/13 01:36:47;;;;;;;6.93;2.38;;;;;;;;;;5032565;28;20030;-52
2021/09/13 01:39:13;;;;;;;4.90;2.50;;;;;;;;;;5032918;28;20505;-52
2021/09/13 01:41:39;;;;;;;3.25;1.92;;;;;;;;;;5033336;28;20052;-52
2021/09/13 01:44:06;;;;;;;3.33;2.50;;;;;;;;;;5032367;28;20056;-52
2021/09/13 01:46:32;;;;;;;3.17;2.13;;;;;;;;;;5032473;28;20443;-52
2021/09/13 01:48:58;;;;;;;3.53;2.63;;;;;;;;;;5051275;28;20040;-52
2021/09/13 01:51:24;;;;;;;3.25;1.88;;;;;;;;;;5035055;28;20045;-52
2021/09/13 01:53:50;;;;;;;5.90;2.28;;;;;;;;;;5032255;28;20043;-52
2021/09/13 01:56:16;;;;;;;3.63;1.85;;;;;;;;;;5032791;28;20346;-52
2021/09/13 01:58:42;;;;;;;3.08;2.10;;;;;;;;;;5032938;28;20026;-52
2021/09/13 02:01:08;;;;;;;3.25;1.80;;;;;;;;;;5032951;28;20502;-52
2021/09/13 02:03:34;;;;;;;6.95;1.80;;;;;;;;;;5043220;28;20394;-52
2021/09/13 02:06:00;;;;;;;2.78;2.03;;;;;;;;;;5038952;28;20414;-52
2021/09/13 02:08:26;;;;;;;2.92;2.00;;;;;;;;;;5032831;28;20028;-52
2021/09/13 02:10:52;;;;;;;3.42;1.90;;;;;;;;;;5032801;28;20348;-52
2021/09/13 02:13:18;;;;;;;4.68;2.47;;;;;;;;;;5032805;28;20053;-52
2021/09/13 02:15:44;;;;;;;3.67;2.20;;;;;;;;;;5031853;28;20034;-52
2021/09/13 02:18:10;;;;;;;3.05;2.28;;;;;;;;;;5040746;28;20017;-52
2021/09/13 02:20:36;;;;;;;5.97;2.63;;;;;;;;;;5043684;28;20025;-52
2021/09/13 02:23:02;;;;;;;6.30;2.53;;;;;;;;;;5032863;28;20029;-52
2021/09/13 02:25:28;;;;;;;5.75;2.45;;;;;;;;;;5031959;28;20443;-52
2021/09/13 02:27:54;;;;;;;2.67;2.03;;;;;;;;;;5032338;28;20112;-52
2021/09/13 02:30:20;;;;;;;2.30;1.92;;;;;;;;;;5032540;28;20022;-52
2021/09/13 02:32:46;;;;;;;4.50;2.45;;;;;;;;;;5036513;28;20381;-52
2021/09/13 02:35:12;;;;;;;2.53;2.22;;;;;;;;;;5050949;28;20025;-52
2021/09/13 02:37:38;;;;;;;3.42;2.17;;;;;;;;;;5036324;28;20513;-52
2021/09/13 02:40:05;;;;;;;4.85;2.13;;;;;;;;;;5036315;28;20076;-52
2021/09/13 02:42:31;;;;;;;5.50;2.15;;;;;;;;;;5036226;28;20412;-52
2021/09/13 02:44:57;;;;;;;3.85;2.33;;;;;;;;;;5035486;28;20447;-52
2021/09/13 02:47:23;;;;;;;3.72;1.98;;;;;;;;;;5038157;28;20028;-52
2021/09/13 02:49:49;;;;;;;2.92;2.08;;;;;;;;;;5055712;28;20099;-52
2021/09/13 02:52:15;;;;;;;4.90;2.15;;;;;;;;;;5036312;28;20618;-52
2021/09/13 02:54:42;;;;;;;3.15;2.20;;;;;;;;;;5035456;28;20029;-52
2021/09/13 02:57:08;;;;;;;3.38;1.95;;;;;;;;;;5036333;28;20028;-52
2021/09/13 02:59:34;;;;;;;4.28;2.40;;;;;;;;;;5035583;28;20018;-52
2021/09/13 03:02:00;;;;;;;2.60;2.17;;;;;;;;;;5036018;28;20521;-52
2021/09/13 03:04:26;;;;;;;7.93;2.13;;;;;;;;;;5053402;28;20180;-52
2021/09/13 03:06:51;;;;;;;3.15;2.45;;;;;;;;;;5039765;28;20091;-52
2021/09/13 03:09:18;;;;;;;3.30;2.40;;;;;;;;;;5035975;28;20021;-52
2021/09/13 03:11:44;;;;;;;7.25;2.70;;;;;;;;;;5035815;28;20060;-52
2021/09/13 03:14:10;;;;;;;2.85;2.15;;;;;;;;;;5034716;28;20440;-52
2021/09/13 03:16:36;;;;;;;5.00;2.30;;;;;;;;;;5036123;28;20075;-52
2021/09/13 03:19:02;;;;;;;2.40;1.90;;;;;;;;;;5042616;28;20353;-52
2021/09/13 03:21:28;;;;;;;3.28;2.47;;;;;;;;;;5044063;28;20036;-52
2021/09/13 03:23:54;;;;;;;2.33;2.00;;;;;;;;;;5034077;28;20021;-52
2021/09/13 03:26:20;;;;;;;1.95;1.77;;;;;;;;;;5036141;28;20376;-52
2021/09/13 03:28:46;;;;;;;3.97;2.60;;;;;;;;;;5049452;28;20029;-52
2021/09/13 03:31:12;;;;;;;9.23;2.40;;;;;;;;;;5054018;28;20381;-52
2021/09/13 03:33:38;;;;;;;6.03;2.22;;;;;;;;;;5045292;28;20017;-52
2021/09/13 03:36:04;;;;;;;4.38;2.35;;;;;;;;;;5047445;28;20029;-52
2021/09/13 03:38:32;;;;;;;3.88;2.13;;;;;;;;;;5035012;28;20032;-52
2021/09/13 03:40:58;;;;;;;4.78;2.22;;;;;;;;;;5035168;28;20079;-52
2021/09/13 03:43:24;;;;;;;6.80;2.90;;;;;;;;;;5035708;28;20033;-52
2021/09/13 03:45:50;;;;;;;4.88;2.55;;;;;;;;;;5054501;28;20017;-52
2021/09/13 03:48:17;;;;;;;3.65;2.10;;;;;;;;;;5054311;28;20040;-52
2021/09/13 03:50:43;;;;;;;8.95;2.28;;;;;;;;;;5051448;28;20033;-52
2021/09/13 03:53:09;;;;;;;3.20;2.20;;;;;;;;;;5034360;28;20549;-52
2021/09/13 03:55:36;;;;;;;1.95;1.75;;;;;;;;;;5034654;28;20057;-52
2021/09/13 03:58:03;;;;;;;4.85;2.60;;;;;;;;;;5034662;28;20034;-52
2021/09/13 04:00:29;;;;;;;2.55;2.10;;;;;;;;;;5034975;28;20112;-52
2021/09/13 04:02:55;;;;;;;4.25;2.13;;;;;;;;;;5033935;28;20112;-52
2021/09/13 04:05:24;;;;;;;6.05;2.40;;;;;;;;;;5051997;28;20029;-52
2021/09/13 04:10:28;;;;;;;3.25;2.35;;;;;;;;;;5034697;28;20374;-52
2021/09/13 04:12:54;;;;;;;5.80;2.35;;;;;;;;;;5034625;28;20053;-52
2021/09/13 04:15:20;;;;;;;3.60;2.33;;;;;;;;;;5033934;28;20030;-52
2021/09/13 04:17:46;;;;;;;5.78;2.72;;;;;;;;;;5034301;28;20030;-52
2021/09/13 04:20:12;;;;;;;3.17;2.50;;;;;;;;;;5051284;28;20049;-52
2021/09/13 04:22:38;;;;;;;4.07;2.55;;;;;;;;;;5037163;28;20025;-52
2021/09/13 04:25:05;;;;;;;4.35;2.92;;;;;;;;;;5033934;28;20022;-52
2021/09/13 04:27:31;;;;;;;2.90;2.00;;;;;;;;;;5034209;28;20378;-52
2021/09/13 04:29:58;;;;;;;3.17;2.50;;;;;;;;;;5033910;28;20359;-52
2021/09/13 04:32:24;;;;;;;5.38;2.30;;;;;;;;;;5034674;28;20041;-52
2021/09/13 04:34:50;;;;;;;3.33;2.05;;;;;;;;;;5032818;28;20025;-52
2021/09/13 04:37:16;;;;;;;3.78;2.10;;;;;;;;;;5034133;28;20033;-52
2021/09/13 04:39:42;;;;;;;3.88;2.20;;;;;;;;;;5034393;28;20332;-52
2021/09/13 04:42:08;;;;;;;4.63;2.40;;;;;;;;;;5034139;28;20112;-52
2021/09/13 04:44:34;;;;;;;4.53;2.75;;;;;;;;;;5032924;28;20018;-52
2021/09/13 04:47:00;;;;;;;4.22;2.78;;;;;;;;;;5034499;28;20068;-52
2021/09/13 04:49:26;;;;;;;5.75;2.63;;;;;;;;;;5044073;28;20025;-52
2021/09/13 04:51:53;;;;;;;4.60;2.53;;;;;;;;;;5044930;28;20044;-52
2021/09/13 04:54:19;;;;;;;3.47;1.95;;;;;;;;;;5032436;28;20025;-52
2021/09/13 04:56:45;;;;;;;5.15;2.78;;;;;;;;;;5033957;28;20451;-52
2021/09/13 04:59:11;;;;;;;3.45;2.13;;;;;;;;;;5032713;28;20025;-52
2021/09/13 05:01:38;;;;;;;5.63;2.50;;;;;;;;;;5048851;28;20032;-52
2021/09/13 05:04:06;;;;;;;3.10;2.35;;;;;;;;;;5048602;28;20064;-52
2021/09/13 05:06:32;;;;;;;6.10;2.97;;;;;;;;;;5048355;28;20051;-52
2021/09/13 05:08:58;;;;;;;2.92;2.50;;;;;;;;;;5033547;28;20406;-52
2021/09/13 05:11:25;;;;;;;6.55;2.78;;;;;;;;;;5033318;28;20075;-52
2021/09/13 05:13:53;;;;;;;2.95;2.22;;;;;;;;;;5032821;28;20109;-52
2021/09/13 05:16:19;;;;;;;7.15;2.42;;;;;;;;;;5033582;28;20033;-52
2021/09/13 05:18:45;;;;;;;5.60;2.35;;;;;;;;;;5033005;28;20024;-52
2021/09/13 05:21:12;;;;;;;3.83;2.40;;;;;;;;;;5033016;28;20025;-52
2021/09/13 05:23:38;;;;;;;6.78;2.20;;;;;;;;;;5052574;28;20029;-52
2021/09/13 05:26:04;;;;;;;3.42;2.20;;;;;;;;;;5053192;28;20040;-52
2021/09/13 05:28:30;;;;;;;5.15;2.55;;;;;;;;;;5053177;28;20029;-52
2021/09/13 05:30:56;;;;;;;4.53;2.50;;;;;;;;;;5052949;28;20052;-52
2021/09/13 05:33:22;;;;;;;4.70;2.60;;;;;;;;;;5040736;28;20060;-52
2021/09/13 05:35:49;;;;;;;5.97;2.38;;;;;;;;;;5049198;28;20048;-52
2021/09/13 05:38:15;;;;;;;5.75;2.20;;;;;;;;;;5035808;28;20439;-52
2021/09/13 05:40:43;;;;;;;2.45;2.15;;;;;;;;;;5042160;28;20029;-52
2021/09/13 05:43:09;;;;;;;3.42;2.00;;;;;;;;;;5032619;28;20033;-52
2021/09/13 05:45:35;;;;;;;2.28;1.85;;;;;;;;;;5032243;28;20033;-52
2021/09/13 05:48:02;;;;;;;5.40;2.03;;;;;;;;;;5047098;28;20036;-52
2021/09/13 05:50:28;;;;;;;4.07;2.35;;;;;;;;;;5051889;28;20028;-52
2021/09/13 05:52:54;;;;;;;3.95;1.98;;;;;;;;;;5039249;28;20439;-52
2021/09/13 05:55:21;;;;;;;3.00;2.22;;;;;;;;;;5030915;28;20025;-52
2021/09/13 05:57:47;;;;;;;5.57;1.95;;;;;;;;;;5032455;28;20467;-52
2021/09/13 06:00:13;;;;;;;2.40;2.00;;;;;;;;;;5031889;28;20022;-52
2021/09/13 06:02:39;;;;;;;4.40;2.65;;;;;;;;;;5033462;28;20021;-52
2021/09/13 06:05:05;;;;;;;2.70;2.00;;;;;;;;;;5047202;28;20040;-52
2021/09/13 06:07:31;;;;;;;6.88;2.25;;;;;;;;;;5042956;28;20033;-53
2021/09/13 06:09:57;;;;;;;3.85;2.50;;;;;;;;;;5033000;28;20075;-52
2021/09/13 06:12:23;;;;;;;6.32;2.20;;;;;;;;;;5033074;28;20033;-52
2021/09/13 06:14:51;;;;;;;5.00;2.40;;;;;;;;;;5031690;28;20052;-52
2021/09/13 06:17:17;;;;;;;5.05;2.00;;;;;;;;;;5031456;28;20033;-52
2021/09/13 06:19:43;;;;;;;3.72;2.20;;;;;;;;;;5039322;28;20032;-52
2021/09/13 06:22:09;;;;;;;3.75;2.30;;;;;;;;;;5048105;28;20033;-52
2021/09/13 06:24:39;;;;;;;8.20;2.55;;;;;;;;;;5031637;28;20075;-53
2021/09/13 06:27:06;;;;;;;5.32;2.80;;;;;;;;;;5032000;28;20052;-52
2021/09/13 06:29:32;;;;;;;6.88;3.28;;;;;;;;;;5032940;28;20025;-52
2021/09/13 06:31:58;;;;;;;9.73;2.92;;;;;;;;;;5032540;28;20036;-52
2021/09/13 06:34:24;;;;;;;10.20;2.40;;;;;;;;;;5039883;28;20370;-52
2021/09/13 06:36:50;;;;;;;3.13;2.38;;;;;;;;;;5051338;28;20063;-52
2021/09/13 06:39:16;;;;;;;8.57;2.80;;;;;;;;;;5032421;28;20055;-52
2021/09/13 06:41:42;;;;;;;4.35;2.78;;;;;;;;;;5032307;28;20060;-53
2021/09/13 06:44:08;;;;;;;6.70;2.70;;;;;;;;;;5031845;28;20045;-53
2021/09/13 06:49:07;;;;;;;3.80;2.75;;;;;;;;;;5032734;28;20042;-53
2021/09/13 06:51:33;;;;;;;5.72;2.85;;;;;;;;;;5051410;28;20029;-52
2021/09/13 06:53:59;;;;;;;6.00;3.65;;;;;;;;;;5033874;28;20347;-53
2021/09/13 06:56:25;;;;;;;5.40;3.28;;;;;;;;;;5032090;28;20033;-52
2021/09/13 06:58:52;;;;;;;5.93;3.83;;;;;;;;;;5032594;28;20459;-53
2021/09/13 07:01:21;;;;;;;12.07;4.88;;;;;;;;;;5032514;28;20355;-53
2021/09/13 07:03:47;;;;;;;12.18;5.15;;;;;;;;;;5031844;28;20025;-53
2021/09/13 07:06:13;;;;;;;4.63;3.47;;;;;;;;;;5031644;28;20017;-53
2021/09/13 07:08:39;;;;;;;4.68;3.05;;;;;;;;;;5031446;28;20084;-53
2021/09/13 07:11:06;;;;;;;5.85;3.30;;;;;;;;;;5032136;28;20038;-53
2021/09/13 07:13:32;;;;;;;10.20;3.05;;;;;;;;;;5031787;28;20026;-53
2021/09/13 07:15:58;;;;;;;9.18;3.08;;;;;;;;;;5032026;28;20038;-53
2021/09/13 07:18:27;;;;;;;9.55;3.88;;;;;;;;;;5035187;28;20029;-53
2021/09/13 07:20:53;;;;;;;6.88;3.97;;;;;;;;;;5041497;28;20025;-52
2021/09/13 07:23:19;;;;;;;7.82;5.15;;;;;;;;;;5044890;28;20033;-52
2021/09/13 07:25:45;;;;;;;7.45;4.15;;;;;;;;;;5034652;28;20029;-52
2021/09/13 07:28:11;;;;;;;6.28;4.18;;;;;;;;;;5035633;28;20041;-52
2021/09/13 07:30:37;;;;;;;8.85;4.35;;;;;;;;;;5035783;28;20025;-53
2021/09/13 07:33:03;;;;;;;8.95;5.72;;;;;;;;;;5035432;28;20060;-53
2021/09/13 07:35:29;;;;;;;6.30;4.43;;;;;;;;;;5037085;28;20033;-52
2021/09/13 07:37:55;;;;;;;11.75;6.50;;;;;;;;;;5049403;28;20105;-53
2021/09/13 07:40:21;;;;;;;11.02;5.95;;;;;;;;;;5035557;28;20412;-53
2021/09/13 07:42:47;;;;;;;9.77;5.07;;;;;;;;;;5035301;28;20108;-52
2021/09/13 07:45:13;;;;;;;7.85;4.50;;;;;;;;;;5034392;28;20082;-52
2021/09/13 07:47:40;;;;;;;16.27;7.88;;;;;;;;;;5035319;28;20105;-53
2021/09/13 07:50:06;;;;;;;22.20;7.97;;;;;;;;;;5034638;28;20029;-53
2021/09/13 07:52:32;;;;;;;13.05;7.38;;;;;;;;;;5052961;28;20045;-52
2021/09/13 07:54:58;;;;;;;9.10;4.10;;;;;;;;;;5033489;28;20107;-53
2021/09/13 07:57:24;;;;;;;6.97;4.47;;;;;;;;;;5035730;28;20057;-52
2021/09/13 07:59:50;;;;;;;8.30;5.07;;;;;;;;;;5041660;28;20036;-53
2021/09/13 08:02:17;;;;;;;23.85;9.00;;;;;;;;;;5054338;28;20021;-53
2021/09/13 08:04:43;;;;;;;32.47;10.77;;;;;;;;;;5052972;28;20033;-53
2021/09/13 08:07:09;;;;;;;20.30;9.18;;;;;;;;;;5054575;28;20111;-52
2021/09/13 08:09:35;;;;;;;19.27;9.25;;;;;;;;;;5037358;28;20419;-53
2021/09/13 08:12:01;;;;;;;37.08;12.40;;;;;;;;;;5041043;28;20462;-53
2021/09/13 08:14:27;;;;;;;16.20;6.88;;;;;;;;;;5053744;28;20351;-53
2021/09/13 08:16:53;;;;;;;24.77;10.98;;;;;;;;;;5053401;28;20024;-53
2021/09/13 08:19:19;;;;;;;11.68;5.88;;;;;;;;;;5054492;28;20037;-51
2021/09/13 08:21:45;;;;;;;9.57;4.00;;;;;;;;;;5053420;28;20052;-50
2021/09/13 08:24:11;;;;;;;12.75;6.80;;;;;;;;;;5045562;28;20117;-50
2021/09/13 08:26:39;;;;;;;14.27;7.75;;;;;;;;;;5042160;28;20021;-50
2021/09/13 08:29:15;;;;;;;21.05;10.93;;;;;;;;;;5050491;28;20116;-51
2021/09/13 08:31:41;;;;;;;26.95;11.98;;;;;;;;;;5053395;28;20037;-51
2021/09/13 08:34:07;;;;;;;21.15;9.65;;;;;;;;;;5053681;28;20021;-50
2021/09/13 08:36:33;;;;;;;24.58;12.32;;;;;;;;;;5050397;28;20435;-51
2021/09/13 08:38:59;;;;;;;8.00;5.32;;;;;;;;;;5043494;28;20053;-52
2021/09/13 08:41:25;;;;;;;11.95;7.25;;;;;;;;;;5034018;28;20071;-51
2021/09/13 08:43:53;;;;;;;21.92;11.05;;;;;;;;;;5032882;28;20355;-51
2021/09/13 08:46:26;;;;;;;13.02;7.75;;;;;;;;;;5032699;28;20056;-51
2021/09/13 08:48:58;;;;;;;8.73;5.03;;;;;;;;;;5034221;28;20443;-52
2021/09/13 08:51:30;;;;;;;15.02;8.52;;;;;;;;;;5043936;28;20033;-51
2021/09/13 08:53:58;;;;;;;11.75;6.30;;;;;;;;;;5044120;28;20460;-51
2021/09/13 08:56:28;;;;;;;10.77;6.18;;;;;;;;;;5033610;28;20447;-51
2021/09/13 08:58:54;;;;;;;;;;;;;;;;;;5034629;28;20135;-51
2021/09/13 09:01:20;;;;;;;12.82;7.40;;;;;;;;;;5034259;28;20343;-51
2021/09/13 09:03:47;;;;;;;11.48;6.30;;;;;;;;;;5032398;28;20029;-51
2021/09/13 09:06:28;;;;;;;16.95;8.38;;;;;;;;;;5040764;28;20025;-51
2021/09/13 09:09:01;;;;;;;9.77;5.63;;;;;;;;;;5041579;28;20374;-51
2021/09/13 09:11:47;;;;;;;12.50;6.57;;;;;;;;;;5042416;28;20033;-51
2021/09/13 09:14:27;;;;;;;9.55;5.70;;;;;;;;;;5039999;28;20025;-51
2021/09/13 09:16:57;;;;;;;11.35;4.70;;;;;;;;;;5042366;28;20079;-51
2021/09/13 09:19:23;;;;;;;;;;;;;;;;;;5042887;28;20055;-51
2021/09/13 09:21:49;;;;;;;15.40;6.57;;;;;;;;;;5050074;28;19947;-51
2021/09/13 09:24:16;;;;;;;10.27;5.20;;;;;;;;;;5042571;28;20029;-51
2021/09/13 09:26:59;;;;;;;19.88;6.50;;;;;;;;;;5033288;28;20056;-51
2021/09/13 09:29:29;;;;;;;7.60;5.10;;;;;;;;;;5033379;28;20025;-51
2021/09/13 09:31:59;;;;;;;9.05;4.75;;;;;;;;;;5048147;28;20336;-52
2021/09/13 09:34:26;;;;;;;10.48;6.00;;;;;;;;;;5052164;28;20029;-52
2021/09/13 09:36:57;;;;;;;10.70;5.95;;;;;;;;;;5052290;28;20029;-51
2021/09/13 09:39:28;;;;;;;11.90;5.88;;;;;;;;;;5050129;28;20024;-52
2021/09/13 09:41:56;;;;;;;10.32;5.50;;;;;;;;;;5052828;28;20028;-51
2021/09/13 09:44:22;;;;;;;12.30;5.03;;;;;;;;;;5051852;28;20029;-52
2021/09/13 09:46:48;;;;;;;12.55;5.78;;;;;;;;;;5036882;28;20132;-52
2021/09/13 09:49:15;;;;;;;9.82;5.28;;;;;;;;;;5043865;28;20167;-51
2021/09/13 09:51:43;;;;;;;10.77;6.47;;;;;;;;;;5038344;28;20596;-51
2021/09/13 09:54:13;;;;;;;10.48;6.18;;;;;;;;;;5042455;28;20040;-52
2021/09/13 09:56:40;;;;;;;9.98;5.35;;;;;;;;;;5057348;28;20385;-51
2021/09/13 09:59:07;;;;;;;12.52;4.88;;;;;;;;;;5071390;28;20029;-51
2021/09/13 10:01:33;;;;;;;8.57;5.18;;;;;;;;;;5053176;28;20435;-51
2021/09/13 10:04:13;;;;;;;12.48;5.20;;;;;;;;;;5043010;28;20393;-51
2021/09/13 10:06:40;;;;;;;8.40;5.53;;;;;;;;;;5050976;28;20025;-51
2021/09/13 10:09:06;;;;;;;10.20;6.00;;;;;;;;;;5046483;28;20033;-51
2021/09/13 10:11:33;;;;;;;12.05;4.82;;;;;;;;;;5031646;28;20047;-52
2021/09/13 10:13:59;;;;;;;11.48;5.90;;;;;;;;;;5030010;28;20379;-51
2021/09/13 10:16:26;;;;;;;10.35;5.38;;;;;;;;;;5032069;28;20026;-51
2021/09/13 10:18:52;;;;;;;9.20;5.35;;;;;;;;;;5032153;28;20036;-52
2021/09/13 10:21:18;;;;;;;10.75;5.72;;;;;;;;;;5040511;28;20112;-52
2021/09/13 10:23:45;;;;;;;9.88;5.25;;;;;;;;;;5049830;28;20025;-52
2021/09/13 10:26:11;;;;;;;8.80;5.45;;;;;;;;;;5037712;28;20348;-51
2021/09/13 10:28:56;;;;;;;8.00;4.28;;;;;;;;;;5042798;28;20040;-51
2021/09/13 10:31:43;;;;;;;16.15;5.22;;;;;;;;;;5037684;28;20045;-51
2021/09/13 10:34:22;;;;;;;6.18;4.30;;;;;;;;;;5029975;28;20116;-52
2021/09/13 10:37:08;;;;;;;6.95;4.63;;;;;;;;;;5043132;28;20025;-51
2021/09/13 10:39:46;;;;;;;8.73;4.93;;;;;;;;;;5050946;28;20505;-51
2021/09/13 10:42:33;;;;;;;10.48;4.45;;;;;;;;;;5052207;28;20497;-51
2021/09/13 10:45:02;;;;;;;8.07;4.85;;;;;;;;;;5051077;28;20099;-51
2021/09/13 10:47:28;;;;;;;9.23;4.55;;;;;;;;;;5052290;28;20029;-51
2021/09/13 10:50:11;;;;;;;6.50;4.32;;;;;;;;;;5052123;28;20096;-51
2021/09/13 10:52:37;;;;;;;7.40;4.70;;;;;;;;;;5044407;28;20679;-52
2021/09/13 10:55:26;;;;;;;7.97;4.78;;;;;;;;;;5045268;28;20036;-52
2021/09/13 10:58:03;;;;;;;6.67;4.47;;;;;;;;;;5038022;28;20033;-51
2021/09/13 11:00:38;;;;;;;6.80;3.72;;;;;;;;;;5043663;28;20039;-51
2021/09/13 11:03:32;;;;;;;13.07;4.75;;;;;;;;;;5036422;28;20039;-51
2021/09/13 11:06:02;;;;;;;8.88;4.90;;;;;;;;;;5035022;28;20037;-51
2021/09/13 11:08:28;;;;;;;8.80;5.85;;;;;;;;;;5043846;28;20025;-51
2021/09/13 11:10:54;;;;;;;7.55;4.25;;;;;;;;;;5043245;28;20037;-51
2021/09/13 11:13:20;;;;;;;8.13;4.63;;;;;;;;;;5046169;28;20114;-52
2021/09/13 11:15:50;;;;;;;6.85;4.13;;;;;;;;;;5042444;28;20068;-51
2021/09/13 11:18:34;;;;;;;6.95;4.25;;;;;;;;;;5043574;28;20026;-51
2021/09/13 11:21:18;;;;;;;7.65;4.18;;;;;;;;;;5045428;28;20370;-51
2021/09/13 11:23:44;;;;;;;8.82;4.82;;;;;;;;;;5045787;28;20104;-51
2021/09/13 11:26:10;;;;;;;8.38;5.10;;;;;;;;;;5047910;28;20108;-52
2021/09/13 11:28:52;;;;;;;5.22;3.78;;;;;;;;;;5055145;28;20036;-51
2021/09/13 11:31:28;;;;;;;6.57;4.18;;;;;;;;;;5055660;28;20029;-52
2021/09/13 11:33:54;;;;;;;11.27;4.55;;;;;;;;;;5051427;28;20038;-52
2021/09/13 11:36:22;;;;;;;6.53;5.05;;;;;;;;;;5048240;28;20116;-52
2021/09/13 11:38:58;;;;;;;9.02;4.80;;;;;;;;;;5054862;28;20013;-51
2021/09/13 11:41:24;;;;;;;9.27;4.10;;;;;;;;;;5053835;28;20332;-51
2021/09/13 11:43:57;;;;;;;7.60;3.83;;;;;;;;;;5054173;28;20032;-52
2021/09/13 11:46:23;;;;;;;6.68;3.40;;;;;;;;;;5054697;28;20029;-52
2021/09/13 11:48:49;;;;;;;6.95;3.85;;;;;;;;;;5054878;28;20017;-51
2021/09/13 11:51:15;;;;;;;8.07;3.90;;;;;;;;;;5051398;28;20028;-51
2021/09/13 11:53:42;;;;;;;6.00;3.72;;;;;;;;;;5053656;28;20048;-52
2021/09/13 11:56:11;;;;;;;6.05;3.75;;;;;;;;;;5040618;28;20026;-55
2021/09/13 11:58:46;;;;;;;7.53;4.22;;;;;;;;;;5034642;28;20040;-51
2021/09/13 12:01:19;;;;;;;4.85;3.53;;;;;;;;;;5035109;28;20029;-51
2021/09/13 12:03:45;;;;;;;6.90;4.40;;;;;;;;;;5032873;28;20447;-52
2021/09/13 12:06:20;;;;;;;5.65;3.80;;;;;;;;;;5034178;28;20052;-52
2021/09/13 12:08:46;;;;;;;5.65;3.13;;;;;;;;;;5054392;28;20324;-53
2021/09/13 12:11:14;;;;;;;4.55;3.40;;;;;;;;;;5041031;28;20037;-52
2021/09/13 12:13:40;;;;;;;5.75;3.13;;;;;;;;;;5034256;28;20056;-52
2021/09/13 12:16:09;;;;;;;6.57;3.40;;;;;;;;;;5036150;28;20045;-52
2021/09/13 12:18:35;;;;;;;7.03;3.88;;;;;;;;;;5050851;28;20025;-52
2021/09/13 12:21:01;;;;;;;5.45;3.30;;;;;;;;;;5053453;28;20025;-52
2021/09/13 12:23:30;;;;;;;4.82;3.45;;;;;;;;;;5053844;28;20025;-53
2021/09/13 12:26:03;;;;;;;9.13;4.33;;;;;;;;;;5042816;28;20064;-52
2021/09/13 12:28:31;;;;;;;7.07;3.78;;;;;;;;;;5034272;28;20371;-52
2021/09/13 12:30:58;;;;;;;5.57;3.45;;;;;;;;;;5032131;28;20063;-52
2021/09/13 12:33:39;;;;;;;4.80;3.00;;;;;;;;;;5034503;28;20036;-52
2021/09/13 12:36:18;;;;;;;5.35;3.70;;;;;;;;;;5042265;28;20017;-52
2021/09/13 12:38:44;;;;;;;5.65;3.35;;;;;;;;;;5046004;28;20350;-52
2021/09/13 12:41:11;;;;;;;6.43;2.95;;;;;;;;;;5052858;28;20044;-52
2021/09/13 12:43:41;;;;;;;5.60;3.00;;;;;;;;;;5053453;28;20021;-52
2021/09/13 12:46:08;;;;;;;3.08;2.40;;;;;;;;;;5053928;28;20021;-52
2021/09/13 12:48:35;;;;;;;3.80;2.53;;;;;;;;;;5053912;28;20044;-52
2021/09/13 12:51:02;;;;;;;7.03;2.90;;;;;;;;;;5053167;28;20032;-52
2021/09/13 12:53:29;;;;;;;4.53;3.05;;;;;;;;;;5052755;28;20182;-52
2021/09/13 12:56:00;;;;;;;4.70;2.83;;;;;;;;;;5044671;28;20365;-52
2021/09/13 12:58:25;;;;;;;;;;;;;;;;;;5043792;28;20023;-52
2021/09/13 13:00:52;;;;;;;3.47;2.50;;;;;;;;;;5049390;28;19998;-52
2021/09/13 13:03:18;;;;;;;7.38;2.42;;;;;;;;;;5051616;28;20055;-52
2021/09/13 13:05:49;;;;;;;5.18;3.17;;;;;;;;;;5045969;28;20029;-52
2021/09/13 13:08:15;;;;;;;4.47;3.17;;;;;;;;;;5052192;28;20458;-52
2021/09/13 13:10:41;;;;;;;3.35;2.70;;;;;;;;;;5048070;28;20099;-52
2021/09/13 13:13:07;;;;;;;3.72;2.80;;;;;;;;;;5033389;28;20040;-52
2021/09/13 13:15:34;;;;;;;4.60;3.40;;;;;;;;;;5032347;28;20013;-52
2021/09/13 13:18:00;;;;;;;5.85;3.33;;;;;;;;;;5050515;28;20434;-52
2021/09/13 13:20:27;;;;;;;4.80;3.00;;;;;;;;;;5052903;28;20053;-52
2021/09/13 13:22:56;;;;;;;6.20;2.80;;;;;;;;;;5044489;28;20097;-52
2021/09/13 13:25:23;;;;;;;5.22;2.70;;;;;;;;;;5050674;28;20025;-52
2021/09/13 13:27:49;;;;;;;4.47;2.70;;;;;;;;;;5033037;28;20399;-52
2021/09/13 13:30:17;;;;;;;3.22;2.53;;;;;;;;;;5032951;28;20031;-52
2021/09/13 13:32:43;;;;;;;3.53;2.22;;;;;;;;;;5032987;28;20444;-52
2021/09/13 13:35:09;;;;;;;4.90;3.60;;;;;;;;;;5032014;28;20018;-52
2021/09/13 13:37:35;;;;;;;4.18;2.67;;;;;;;;;;5036208;28;20466;-52
2021/09/13 13:40:01;;;;;;;5.22;2.88;;;;;;;;;;5052702;28;20032;-52
2021/09/13 13:42:27;;;;;;;3.13;2.60;;;;;;;;;;5051689;28;20032;-52
2021/09/13 13:44:56;;;;;;;4.30;2.78;;;;;;;;;;5052120;28;20116;-52
2021/09/13 13:47:22;;;;;;;8.90;2.50;;;;;;;;;;5052627;28;20116;-52
2021/09/13 13:49:48;;;;;;;5.43;2.63;;;;;;;;;;5052849;28;20124;-52
2021/09/13 13:52:14;;;;;;;6.30;2.60;;;;;;;;;;5045292;28;20124;-52
2021/09/13 13:54:40;;;;;;;2.88;2.40;;;;;;;;;;5052061;28;20028;-52
2021/09/13 13:57:06;;;;;;;4.68;2.92;;;;;;;;;;5038451;28;20034;-52
2021/09/13 13:59:33;;;;;;;6.15;3.28;;;;;;;;;;5033429;28;20026;-52
2021/09/13 14:01:59;;;;;;;4.07;2.50;;;;;;;;;;5032630;28;20080;-52
2021/09/13 14:04:25;;;;;;;5.63;3.05;;;;;;;;;;5036041;28;20431;-52
2021/09/13 14:06:51;;;;;;;4.68;3.33;;;;;;;;;;5047624;28;20027;-52
2021/09/13 14:09:17;;;;;;;5.88;3.22;;;;;;;;;;5050431;28;20351;-52
2021/09/13 14:11:43;;;;;;;11.25;4.80;;;;;;;;;;5042645;28;20042;-52
2021/09/13 14:14:09;;;;;;;6.90;2.78;;;;;;;;;;5032108;28;20037;-52
2021/09/13 14:16:35;;;;;;;5.60;3.00;;;;;;;;;;5032847;28;20014;-52
2021/09/13 14:19:01;;;;;;;3.95;2.35;;;;;;;;;;5032035;28;20033;-52
2021/09/13 14:21:27;;;;;;;4.55;2.50;;;;;;;;;;5032029;28;20451;-52
2021/09/13 14:23:53;;;;;;;4.10;2.72;;;;;;;;;;5046158;28;20075;-52
2021/09/13 14:26:19;;;;;;;6.97;2.97;;;;;;;;;;5046861;28;20029;-52
2021/09/13 14:28:45;;;;;;;3.88;2.63;;;;;;;;;;5036354;28;20102;-52
2021/09/13 14:31:11;;;;;;;6.40;2.95;;;;;;;;;;5036624;28;20519;-52
2021/09/13 14:33:37;;;;;;;4.38;2.50;;;;;;;;;;5035132;28;20017;-52
2021/09/13 14:36:04;;;;;;;2.58;2.20;;;;;;;;;;5036341;28;20486;-52
2021/09/13 14:38:30;;;;;;;2.45;2.20;;;;;;;;;;5047104;28;20439;-52
2021/09/13 14:40:56;;;;;;;3.10;2.20;;;;;;;;;;5055620;28;20116;-52
2021/09/13 14:43:22;;;;;;;4.60;2.70;;;;;;;;;;5055643;28;20031;-52
2021/09/13 14:45:48;;;;;;;5.43;2.60;;;;;;;;;;5055601;28;20021;-52
2021/09/13 14:48:14;;;;;;;2.58;2.13;;;;;;;;;;5056063;28;20032;-52